Overview Statistics Trail Chart Weather Telemetry Raw packets
 

This is the latest recevied weather packets stored in our database for station/object DJ2KUA-6. If no packets are shown the sender has not sent any weather packets the latest 10 day(s).

<< 13 14 15 16 17 18 19 >>
Time Temp. Humidity Pressure Rain* Wind** Luminosity Snow
1788191973 21.67° C 70% 1069 hPa 0 mm - - -
1788190832 21.67° C 70% 1069 hPa 0.51 mm - - -
1788188553 21.67° C 65% 1069 hPa 0.51 mm - - -
1788187413 25° C 52% 1068 hPa 0 mm - - -
1788186273 26.67° C 49% 1068 hPa 0 mm - - -
1788185132 26.67° C 49% 1068 hPa 0 mm - - -
1788184007 26.67° C 48% 1068 hPa 0 mm - - -
1788182854 26.67° C 47% 1068 hPa 0 mm - - -
1788181713 26.11° C 47% 1068 hPa 0 mm - - -
1788180573 26.11° C 47% 1068 hPa 0 mm - - -
1788179434 26.67° C 48% 1069 hPa 0 mm - - -
1788178293 26.11° C 50% 1069 hPa 0 mm - - -
1788177154 25.56° C 52% 1069 hPa 0 mm - - -
1788176014 24.44° C 55% 1069 hPa 0 mm - - -
1788174874 23.89° C 58% 1069 hPa 0 mm - - -
1788173733 23.89° C 61% 1069 hPa 0 mm - - -
1788172594 23.33° C 62% 1069 hPa 0 mm - - -
1788171453 22.22° C 65% 1069 hPa 0 mm - - -
1788170314 22.22° C 65% 1069 hPa 0 mm - - -
1788169174 23.33° C 65% 1069 hPa 0 mm - - -
1788168032 22.78° C 68% 1069 hPa 0 mm - - -
1788166893 22.22° C 69% 1069 hPa 0 mm - - -
1788165753 21.67° C 70% 1069 hPa 0 mm - - -
1788164614 21.11° C 73% 1069 hPa 0 mm - - -
1788163473 21.11° C 75% 1069 hPa 0 mm - - -

* Rain latest hour (hover to see other rain measurements)
** Current wind speed in m/s (hover to see current wind gust speed)